sensor_id;sensor_type;location;lat;lon;timestamp;pressure;altitude;pressure_sealevel;temperature
21336;BMP180;10826;52.536;13.432;2022-09-09T00:02:15;100507.00;;;21.90
21336;BMP180;10826;52.536;13.432;2022-09-09T00:05:04;100501.00;;;21.90
21336;BMP180;10826;52.536;13.432;2022-09-09T00:18:21;100510.00;;;21.70
21336;BMP180;10826;52.536;13.432;2022-09-09T00:21:16;100511.00;;;21.80
21336;BMP180;10826;52.536;13.432;2022-09-09T00:23:54;100481.00;;;21.70
21336;BMP180;10826;52.536;13.432;2022-09-09T00:26:39;100499.00;;;21.70
21336;BMP180;10826;52.536;13.432;2022-09-09T00:32:18;100492.00;;;21.70
21336;BMP180;10826;52.536;13.432;2022-09-09T00:35:29;100483.00;;;21.70
21336;BMP180;10826;52.536;13.432;2022-09-09T00:38:10;100494.00;;;21.70
21336;BMP180;10826;52.536;13.432;2022-09-09T00:40:52;100491.00;;;21.70
21336;BMP180;10826;52.536;13.432;2022-09-09T00:43:30;100476.00;;;21.70
21336;BMP180;10826;52.536;13.432;2022-09-09T00:46:41;100490.00;;;21.70
21336;BMP180;10826;52.536;13.432;2022-09-09T00:49:35;100497.00;;;21.70
21336;BMP180;10826;52.536;13.432;2022-09-09T00:58:18;100494.00;;;21.50
21336;BMP180;10826;52.536;13.432;2022-09-09T01:01:01;100494.00;;;21.60
21336;BMP180;10826;52.536;13.432;2022-09-09T01:03:53;100499.00;;;21.60
21336;BMP180;10826;52.536;13.432;2022-09-09T01:06:34;100501.00;;;21.60
21336;BMP180;10826;52.536;13.432;2022-09-09T01:09:33;100497.00;;;21.60
21336;BMP180;10826;52.536;13.432;2022-09-09T01:15:26;100497.00;;;21.50
21336;BMP180;10826;52.536;13.432;2022-09-09T01:18:13;100505.00;;;21.50
21336;BMP180;10826;52.536;13.432;2022-09-09T01:24:08;100509.00;;;21.50
21336;BMP180;10826;52.536;13.432;2022-09-09T01:26:45;100496.00;;;21.50
21336;BMP180;10826;52.536;13.432;2022-09-09T01:29:20;100502.00;;;21.50
21336;BMP180;10826;52.536;13.432;2022-09-09T01:31:59;100509.00;;;21.50
21336;BMP180;10826;52.536;13.432;2022-09-09T01:34:34;100493.00;;;21.50
21336;BMP180;10826;52.536;13.432;2022-09-09T01:37:12;100502.00;;;21.40
21336;BMP180;10826;52.536;13.432;2022-09-09T01:39:43;100493.00;;;21.40
21336;BMP180;10826;52.536;13.432;2022-09-09T01:42:16;100495.00;;;21.40
21336;BMP180;10826;52.536;13.432;2022-09-09T01:44:42;100497.00;;;21.40
21336;BMP180;10826;52.536;13.432;2022-09-09T01:47:09;100493.00;;;21.40
21336;BMP180;10826;52.536;13.432;2022-09-09T01:49:35;100480.00;;;21.40
21336;BMP180;10826;52.536;13.432;2022-09-09T01:52:03;100507.00;;;21.30
21336;BMP180;10826;52.536;13.432;2022-09-09T01:54:32;100507.00;;;21.40
21336;BMP180;10826;52.536;13.432;2022-09-09T01:57:39;100498.00;;;21.40
21336;BMP180;10826;52.536;13.432;2022-09-09T02:00:13;100504.00;;;21.30
21336;BMP180;10826;52.536;13.432;2022-09-09T02:03:25;100485.00;;;21.30
21336;BMP180;10826;52.536;13.432;2022-09-09T02:08:50;100503.00;;;21.30
21336;BMP180;10826;52.536;13.432;2022-09-09T02:11:24;100506.00;;;21.10
21336;BMP180;10826;52.536;13.432;2022-09-09T02:13:57;100509.00;;;21.30
21336;BMP180;10826;52.536;13.432;2022-09-09T02:16:50;100511.00;;;21.30
21336;BMP180;10826;52.536;13.432;2022-09-09T02:19:27;100492.00;;;21.20
21336;BMP180;10826;52.536;13.432;2022-09-09T02:21:59;100502.00;;;21.20
21336;BMP180;10826;52.536;13.432;2022-09-09T02:24:32;100496.00;;;21.10
21336;BMP180;10826;52.536;13.432;2022-09-09T02:27:04;100512.00;;;21.20
21336;BMP180;10826;52.536;13.432;2022-09-09T02:29:41;100522.00;;;21.20
21336;BMP180;10826;52.536;13.432;2022-09-09T02:32:17;100499.00;;;21.10
21336;BMP180;10826;52.536;13.432;2022-09-09T02:34:53;100532.00;;;21.20
21336;BMP180;10826;52.536;13.432;2022-09-09T02:37:34;100514.00;;;21.20
21336;BMP180;10826;52.536;13.432;2022-09-09T02:40:04;100499.00;;;21.10
21336;BMP180;10826;52.536;13.432;2022-09-09T02:42:31;100500.00;;;21.10
21336;BMP180;10826;52.536;13.432;2022-09-09T02:45:00;100501.00;;;21.20
21336;BMP180;10826;52.536;13.432;2022-09-09T02:50:32;100511.00;;;21.10
21336;BMP180;10826;52.536;13.432;2022-09-09T02:53:10;100509.00;;;21.10
21336;BMP180;10826;52.536;13.432;2022-09-09T02:55:47;100483.00;;;21.10
21336;BMP180;10826;52.536;13.432;2022-09-09T02:58:18;100477.00;;;21.10
21336;BMP180;10826;52.536;13.432;2022-09-09T03:00:53;100512.00;;;21.10
21336;BMP180;10826;52.536;13.432;2022-09-09T03:03:20;100515.00;;;21.10
21336;BMP180;10826;52.536;13.432;2022-09-09T03:05:47;100505.00;;;21.10
21336;BMP180;10826;52.536;13.432;2022-09-09T03:08:16;100500.00;;;21.10
21336;BMP180;10826;52.536;13.432;2022-09-09T03:10:43;100490.00;;;21.10
21336;BMP180;10826;52.536;13.432;2022-09-09T03:13:10;100514.00;;;21.00
21336;BMP180;10826;52.536;13.432;2022-09-09T03:15:36;100519.00;;;21.00
21336;BMP180;10826;52.536;13.432;2022-09-09T03:18:03;100527.00;;;21.10
21336;BMP180;10826;52.536;13.432;2022-09-09T03:20:30;100524.00;;;21.00
21336;BMP180;10826;52.536;13.432;2022-09-09T03:22:59;100528.00;;;21.00
21336;BMP180;10826;52.536;13.432;2022-09-09T03:25:25;100536.00;;;21.00
21336;BMP180;10826;52.536;13.432;2022-09-09T03:27:53;100516.00;;;21.00
21336;BMP180;10826;52.536;13.432;2022-09-09T03:30:26;100523.00;;;21.00
21336;BMP180;10826;52.536;13.432;2022-09-09T03:32:52;100525.00;;;21.00
21336;BMP180;10826;52.536;13.432;2022-09-09T03:35:22;100519.00;;;21.00
21336;BMP180;10826;52.536;13.432;2022-09-09T03:37:48;100534.00;;;20.90
21336;BMP180;10826;52.536;13.432;2022-09-09T03:40:15;100527.00;;;20.90
21336;BMP180;10826;52.536;13.432;2022-09-09T03:42:45;100528.00;;;21.00
21336;BMP180;10826;52.536;13.432;2022-09-09T03:45:12;100537.00;;;20.90
21336;BMP180;10826;52.536;13.432;2022-09-09T03:47:38;100521.00;;;20.90
21336;BMP180;10826;52.536;13.432;2022-09-09T03:50:06;100524.00;;;20.80
21336;BMP180;10826;52.536;13.432;2022-09-09T03:52:40;100545.00;;;20.90
21336;BMP180;10826;52.536;13.432;2022-09-09T03:55:08;100549.00;;;20.90
21336;BMP180;10826;52.536;13.432;2022-09-09T03:57:34;100518.00;;;20.80
21336;BMP180;10826;52.536;13.432;2022-09-09T04:00:05;100541.00;;;20.80
21336;BMP180;10826;52.536;13.432;2022-09-09T04:02:31;100521.00;;;20.80
21336;BMP180;10826;52.536;13.432;2022-09-09T04:04:57;100535.00;;;20.80
21336;BMP180;10826;52.536;13.432;2022-09-09T04:07:24;100528.00;;;20.70
21336;BMP180;10826;52.536;13.432;2022-09-09T04:09:50;100533.00;;;20.80
21336;BMP180;10826;52.536;13.432;2022-09-09T04:12:17;100523.00;;;20.80
21336;BMP180;10826;52.536;13.432;2022-09-09T04:14:43;100524.00;;;20.80
21336;BMP180;10826;52.536;13.432;2022-09-09T04:17:09;100522.00;;;20.70
21336;BMP180;10826;52.536;13.432;2022-09-09T04:19:35;100520.00;;;20.70
21336;BMP180;10826;52.536;13.432;2022-09-09T04:22:01;100527.00;;;20.70
21336;BMP180;10826;52.536;13.432;2022-09-09T04:24:27;100493.00;;;20.70
21336;BMP180;10826;52.536;13.432;2022-09-09T04:26:55;100522.00;;;20.70
21336;BMP180;10826;52.536;13.432;2022-09-09T04:29:21;100473.00;;;20.70
21336;BMP180;10826;52.536;13.432;2022-09-09T04:31:47;100526.00;;;20.70
21336;BMP180;10826;52.536;13.432;2022-09-09T04:34:13;100529.00;;;20.70
21336;BMP180;10826;52.536;13.432;2022-09-09T04:36:39;100554.00;;;20.70
21336;BMP180;10826;52.536;13.432;2022-09-09T04:39:06;100541.00;;;20.70
21336;BMP180;10826;52.536;13.432;2022-09-09T04:41:32;100539.00;;;20.70
21336;BMP180;10826;52.536;13.432;2022-09-09T04:43:58;100546.00;;;20.70
21336;BMP180;10826;52.536;13.432;2022-09-09T04:46:26;100545.00;;;20.70
21336;BMP180;10826;52.536;13.432;2022-09-09T04:48:58;100548.00;;;20.70
21336;BMP180;10826;52.536;13.432;2022-09-09T04:51:28;100543.00;;;20.70
21336;BMP180;10826;52.536;13.432;2022-09-09T04:53:54;100531.00;;;20.70
21336;BMP180;10826;52.536;13.432;2022-09-09T04:56:20;100544.00;;;20.70
21336;BMP180;10826;52.536;13.432;2022-09-09T04:58:46;100548.00;;;20.70
21336;BMP180;10826;52.536;13.432;2022-09-09T05:01:19;100561.00;;;20.80
21336;BMP180;10826;52.536;13.432;2022-09-09T05:03:47;100570.00;;;20.80
21336;BMP180;10826;52.536;13.432;2022-09-09T05:06:17;100570.00;;;20.80
21336;BMP180;10826;52.536;13.432;2022-09-09T05:08:44;100577.00;;;20.80
21336;BMP180;10826;52.536;13.432;2022-09-09T05:11:28;100571.00;;;20.90
21336;BMP180;10826;52.536;13.432;2022-09-09T05:13:54;100572.00;;;20.80
21336;BMP180;10826;52.536;13.432;2022-09-09T05:16:21;100572.00;;;20.80
21336;BMP180;10826;52.536;13.432;2022-09-09T05:18:49;100554.00;;;20.90
21336;BMP180;10826;52.536;13.432;2022-09-09T05:21:19;100561.00;;;20.90
21336;BMP180;10826;52.536;13.432;2022-09-09T05:23:47;100545.00;;;20.90
21336;BMP180;10826;52.536;13.432;2022-09-09T05:26:18;100563.00;;;21.00
21336;BMP180;10826;52.536;13.432;2022-09-09T05:28:45;100576.00;;;21.00
21336;BMP180;10826;52.536;13.432;2022-09-09T05:31:14;100562.00;;;21.10
21336;BMP180;10826;52.536;13.432;2022-09-09T05:33:45;100572.00;;;21.10
21336;BMP180;10826;52.536;13.432;2022-09-09T05:36:18;100550.00;;;21.20
21336;BMP180;10826;52.536;13.432;2022-09-09T05:38:46;100575.00;;;21.20
21336;BMP180;10826;52.536;13.432;2022-09-09T05:41:14;100570.00;;;21.20
21336;BMP180;10826;52.536;13.432;2022-09-09T05:43:47;100555.00;;;21.30
21336;BMP180;10826;52.536;13.432;2022-09-09T05:46:35;100556.00;;;21.40
21336;BMP180;10826;52.536;13.432;2022-09-09T05:49:15;100567.00;;;21.30
21336;BMP180;10826;52.536;13.432;2022-09-09T05:51:41;100539.00;;;21.30
21336;BMP180;10826;52.536;13.432;2022-09-09T05:54:09;100561.00;;;21.20
21336;BMP180;10826;52.536;13.432;2022-09-09T05:56:35;100552.00;;;21.40
21336;BMP180;10826;52.536;13.432;2022-09-09T05:59:01;100559.00;;;21.40
21336;BMP180;10826;52.536;13.432;2022-09-09T06:01:34;100567.00;;;21.50
21336;BMP180;10826;52.536;13.432;2022-09-09T06:04:02;100558.00;;;21.50
21336;BMP180;10826;52.536;13.432;2022-09-09T06:06:37;100574.00;;;21.60
21336;BMP180;10826;52.536;13.432;2022-09-09T06:09:08;100530.00;;;21.60
21336;BMP180;10826;52.536;13.432;2022-09-09T06:11:38;100558.00;;;21.70
21336;BMP180;10826;52.536;13.432;2022-09-09T06:14:06;100582.00;;;21.70
21336;BMP180;10826;52.536;13.432;2022-09-09T06:16:34;100571.00;;;21.70
21336;BMP180;10826;52.536;13.432;2022-09-09T06:19:04;100567.00;;;21.80
21336;BMP180;10826;52.536;13.432;2022-09-09T06:21:37;100583.00;;;21.90
21336;BMP180;10826;52.536;13.432;2022-09-09T06:24:05;100598.00;;;22.00
21336;BMP180;10826;52.536;13.432;2022-09-09T06:26:35;100592.00;;;22.00
21336;BMP180;10826;52.536;13.432;2022-09-09T06:29:08;100596.00;;;22.10
21336;BMP180;10826;52.536;13.432;2022-09-09T06:31:35;100592.00;;;22.10
21336;BMP180;10826;52.536;13.432;2022-09-09T06:34:06;100589.00;;;22.20
21336;BMP180;10826;52.536;13.432;2022-09-09T06:36:36;100594.00;;;22.20
21336;BMP180;10826;52.536;13.432;2022-09-09T06:39:03;100596.00;;;22.30
21336;BMP180;10826;52.536;13.432;2022-09-09T06:41:32;100602.00;;;22.30
21336;BMP180;10826;52.536;13.432;2022-09-09T06:43:59;100611.00;;;22.30
21336;BMP180;10826;52.536;13.432;2022-09-09T06:46:29;100614.00;;;22.40
21336;BMP180;10826;52.536;13.432;2022-09-09T06:48:57;100606.00;;;22.40
21336;BMP180;10826;52.536;13.432;2022-09-09T06:51:30;100611.00;;;22.50
21336;BMP180;10826;52.536;13.432;2022-09-09T06:54:00;100569.00;;;22.50
21336;BMP180;10826;52.536;13.432;2022-09-09T06:56:34;100606.00;;;22.50
21336;BMP180;10826;52.536;13.432;2022-09-09T06:59:06;100608.00;;;22.60
21336;BMP180;10826;52.536;13.432;2022-09-09T07:01:39;100603.00;;;22.70
21336;BMP180;10826;52.536;13.432;2022-09-09T07:04:09;100583.00;;;22.70
21336;BMP180;10826;52.536;13.432;2022-09-09T07:06:40;100603.00;;;22.80
21336;BMP180;10826;52.536;13.432;2022-09-09T07:09:12;100578.00;;;22.90
21336;BMP180;10826;52.536;13.432;2022-09-09T07:11:51;100603.00;;;23.00
21336;BMP180;10826;52.536;13.432;2022-09-09T07:14:20;100618.00;;;23.10
21336;BMP180;10826;52.536;13.432;2022-09-09T07:16:46;100596.00;;;23.10
21336;BMP180;10826;52.536;13.432;2022-09-09T07:19:13;100599.00;;;23.20
21336;BMP180;10826;52.536;13.432;2022-09-09T07:21:42;100603.00;;;23.30
21336;BMP180;10826;52.536;13.432;2022-09-09T07:24:15;100596.00;;;23.40
21336;BMP180;10826;52.536;13.432;2022-09-09T07:26:41;100597.00;;;23.40
21336;BMP180;10826;52.536;13.432;2022-09-09T07:29:09;100583.00;;;23.50
21336;BMP180;10826;52.536;13.432;2022-09-09T07:31:43;100612.00;;;23.60
21336;BMP180;10826;52.536;13.432;2022-09-09T07:34:10;100612.00;;;23.70
21336;BMP180;10826;52.536;13.432;2022-09-09T07:36:48;100621.00;;;23.80
21336;BMP180;10826;52.536;13.432;2022-09-09T07:39:15;100590.00;;;23.80
21336;BMP180;10826;52.536;13.432;2022-09-09T07:41:47;100611.00;;;23.90
21336;BMP180;10826;52.536;13.432;2022-09-09T07:44:22;100608.00;;;24.00
21336;BMP180;10826;52.536;13.432;2022-09-09T07:46:49;100614.00;;;24.00
21336;BMP180;10826;52.536;13.432;2022-09-09T07:49:21;100607.00;;;24.10
21336;BMP180;10826;52.536;13.432;2022-09-09T07:51:48;100618.00;;;24.20
21336;BMP180;10826;52.536;13.432;2022-09-09T07:54:21;100600.00;;;24.20
21336;BMP180;10826;52.536;13.432;2022-09-09T07:56:50;100623.00;;;24.40
21336;BMP180;10826;52.536;13.432;2022-09-09T07:59:18;100620.00;;;24.50
21336;BMP180;10826;52.536;13.432;2022-09-09T08:01:49;100579.00;;;24.70
21336;BMP180;10826;52.536;13.432;2022-09-09T08:04:22;100607.00;;;24.80
21336;BMP180;10826;52.536;13.432;2022-09-09T08:06:56;100621.00;;;25.00
21336;BMP180;10826;52.536;13.432;2022-09-09T08:09:27;100625.00;;;25.10
21336;BMP180;10826;52.536;13.432;2022-09-09T08:11:56;100627.00;;;25.20
21336;BMP180;10826;52.536;13.432;2022-09-09T08:14:23;100610.00;;;25.30
21336;BMP180;10826;52.536;13.432;2022-09-09T08:16:50;100623.00;;;25.40
21336;BMP180;10826;52.536;13.432;2022-09-09T08:19:23;100618.00;;;25.40
21336;BMP180;10826;52.536;13.432;2022-09-09T08:21:49;100633.00;;;25.50
21336;BMP180;10826;52.536;13.432;2022-09-09T08:24:16;100639.00;;;25.50
21336;BMP180;10826;52.536;13.432;2022-09-09T08:26:46;100631.00;;;25.50
21336;BMP180;10826;52.536;13.432;2022-09-09T08:29:15;100612.00;;;25.50
21336;BMP180;10826;52.536;13.432;2022-09-09T08:31:51;100614.00;;;25.50
21336;BMP180;10826;52.536;13.432;2022-09-09T08:34:21;100620.00;;;25.40
21336;BMP180;10826;52.536;13.432;2022-09-09T08:36:49;100621.00;;;25.40
21336;BMP180;10826;52.536;13.432;2022-09-09T08:39:20;100629.00;;;25.40
21336;BMP180;10826;52.536;13.432;2022-09-09T08:42:06;100633.00;;;25.40
21336;BMP180;10826;52.536;13.432;2022-09-09T08:47:52;100642.00;;;25.40
21336;BMP180;10826;52.536;13.432;2022-09-09T08:50:35;100629.00;;;25.30
21336;BMP180;10826;52.536;13.432;2022-09-09T08:55:49;100622.00;;;25.30
21336;BMP180;10826;52.536;13.432;2022-09-09T08:58:33;100635.00;;;25.30
21336;BMP180;10826;52.536;13.432;2022-09-09T09:01:45;100644.00;;;25.30
21336;BMP180;10826;52.536;13.432;2022-09-09T09:07:56;100646.00;;;25.50
21336;BMP180;10826;52.536;13.432;2022-09-09T09:10:53;100647.00;;;25.60
21336;BMP180;10826;52.536;13.432;2022-09-09T09:13:35;100646.00;;;25.70
21336;BMP180;10826;52.536;13.432;2022-09-09T09:19:17;100635.00;;;26.00
21336;BMP180;10826;52.536;13.432;2022-09-09T09:21:57;100649.00;;;26.20
21336;BMP180;10826;52.536;13.432;2022-09-09T09:24:50;100648.00;;;26.50
21336;BMP180;10826;52.536;13.432;2022-09-09T09:30:26;100649.00;;;26.90
21336;BMP180;10826;52.536;13.432;2022-09-09T09:33:08;100641.00;;;27.20
21336;BMP180;10826;52.536;13.432;2022-09-09T09:35:37;100645.00;;;27.30
21336;BMP180;10826;52.536;13.432;2022-09-09T09:38:24;100645.00;;;27.60
21336;BMP180;10826;52.536;13.432;2022-09-09T09:40:57;100643.00;;;27.80
21336;BMP180;10826;52.536;13.432;2022-09-09T09:43:33;100641.00;;;27.90
21336;BMP180;10826;52.536;13.432;2022-09-09T09:46:00;100628.00;;;27.90
21336;BMP180;10826;52.536;13.432;2022-09-09T09:48:29;100634.00;;;27.90
21336;BMP180;10826;52.536;13.432;2022-09-09T09:51:06;100648.00;;;27.90
21336;BMP180;10826;52.536;13.432;2022-09-09T09:53:38;100639.00;;;27.80
21336;BMP180;10826;52.536;13.432;2022-09-09T09:56:11;100652.00;;;27.70
21336;BMP180;10826;52.536;13.432;2022-09-09T10:01:29;100636.00;;;27.60
21336;BMP180;10826;52.536;13.432;2022-09-09T10:04:15;100638.00;;;27.50
21336;BMP180;10826;52.536;13.432;2022-09-09T10:06:42;100639.00;;;27.30
21336;BMP180;10826;52.536;13.432;2022-09-09T10:09:34;100647.00;;;27.30
21336;BMP180;10826;52.536;13.432;2022-09-09T10:12:11;100649.00;;;27.20
21336;BMP180;10826;52.536;13.432;2022-09-09T10:24:40;100648.00;;;26.90
21336;BMP180;10826;52.536;13.432;2022-09-09T10:30:24;100648.00;;;26.80
21336;BMP180;10826;52.536;13.432;2022-09-09T10:33:32;100648.00;;;26.90
21336;BMP180;10826;52.536;13.432;2022-09-09T10:36:30;100631.00;;;26.90
21336;BMP180;10826;52.536;13.432;2022-09-09T10:39:38;100650.00;;;27.00
21336;BMP180;10826;52.536;13.432;2022-09-09T10:42:16;100654.00;;;27.00
21336;BMP180;10826;52.536;13.432;2022-09-09T10:45:28;100659.00;;;27.00
21336;BMP180;10826;52.536;13.432;2022-09-09T10:48:26;100660.00;;;27.00
21336;BMP180;10826;52.536;13.432;2022-09-09T10:51:30;100659.00;;;27.10
21336;BMP180;10826;52.536;13.432;2022-09-09T10:57:46;100655.00;;;27.10
21336;BMP180;10826;52.536;13.432;2022-09-09T11:00:44;100645.00;;;27.10
21336;BMP180;10826;52.536;13.432;2022-09-09T11:03:26;100645.00;;;27.10
21336;BMP180;10826;52.536;13.432;2022-09-09T11:06:06;100655.00;;;27.10
21336;BMP180;10826;52.536;13.432;2022-09-09T11:08:38;100657.00;;;27.20
21336;BMP180;10826;52.536;13.432;2022-09-09T11:11:27;100642.00;;;27.30
21336;BMP180;10826;52.536;13.432;2022-09-09T11:14:44;100597.00;;;27.30
21336;BMP180;10826;52.536;13.432;2022-09-09T11:20:13;100655.00;;;27.30
21336;BMP180;10826;52.536;13.432;2022-09-09T11:23:01;100656.00;;;27.30
21336;BMP180;10826;52.536;13.432;2022-09-09T11:25:54;100654.00;;;27.40
21336;BMP180;10826;52.536;13.432;2022-09-09T11:31:54;100660.00;;;27.50
21336;BMP180;10826;52.536;13.432;2022-09-09T11:37:49;100656.00;;;27.60
21336;BMP180;10826;52.536;13.432;2022-09-09T11:40:27;100658.00;;;27.60
21336;BMP180;10826;52.536;13.432;2022-09-09T11:45:33;100639.00;;;27.60
21336;BMP180;10826;52.536;13.432;2022-09-09T11:48:04;100657.00;;;27.70
21336;BMP180;10826;52.536;13.432;2022-09-09T11:50:37;100648.00;;;27.70
21336;BMP180;10826;52.536;13.432;2022-09-09T11:53:19;100644.00;;;27.70
21336;BMP180;10826;52.536;13.432;2022-09-09T11:56:13;100644.00;;;27.90
21336;BMP180;10826;52.536;13.432;2022-09-09T11:59:06;100638.00;;;28.00
21336;BMP180;10826;52.536;13.432;2022-09-09T12:01:44;100641.00;;;27.90
21336;BMP180;10826;52.536;13.432;2022-09-09T12:04:21;100636.00;;;28.10
21336;BMP180;10826;52.536;13.432;2022-09-09T12:06:58;100600.00;;;28.10
21336;BMP180;10826;52.536;13.432;2022-09-09T12:09:51;100606.00;;;28.10
21336;BMP180;10826;52.536;13.432;2022-09-09T12:18:01;100610.00;;;28.20
21336;BMP180;10826;52.536;13.432;2022-09-09T12:20:34;100617.00;;;28.30
21336;BMP180;10826;52.536;13.432;2022-09-09T12:23:19;100607.00;;;28.40
21336;BMP180;10826;52.536;13.432;2022-09-09T12:26:32;100616.00;;;28.40
21336;BMP180;10826;52.536;13.432;2022-09-09T12:29:16;100606.00;;;28.50
21336;BMP180;10826;52.536;13.432;2022-09-09T12:34:44;100606.00;;;28.50
21336;BMP180;10826;52.536;13.432;2022-09-09T12:40:23;100596.00;;;28.40
21336;BMP180;10826;52.536;13.432;2022-09-09T12:42:50;100595.00;;;28.30
21336;BMP180;10826;52.536;13.432;2022-09-09T12:45:20;100598.00;;;28.30
21336;BMP180;10826;52.536;13.432;2022-09-09T12:48:00;100596.00;;;28.30
21336;BMP180;10826;52.536;13.432;2022-09-09T12:50:50;100605.00;;;28.30
21336;BMP180;10826;52.536;13.432;2022-09-09T12:53:31;100595.00;;;28.20
21336;BMP180;10826;52.536;13.432;2022-09-09T12:56:09;100593.00;;;28.20
21336;BMP180;10826;52.536;13.432;2022-09-09T12:58:49;100600.00;;;28.30
21336;BMP180;10826;52.536;13.432;2022-09-09T13:01:27;100603.00;;;28.30
21336;BMP180;10826;52.536;13.432;2022-09-09T13:03:54;100599.00;;;28.40
21336;BMP180;10826;52.536;13.432;2022-09-09T13:06:31;100608.00;;;28.50
21336;BMP180;10826;52.536;13.432;2022-09-09T13:09:02;100604.00;;;28.50
21336;BMP180;10826;52.536;13.432;2022-09-09T13:11:41;100609.00;;;28.60
21336;BMP180;10826;52.536;13.432;2022-09-09T13:14:28;100605.00;;;28.70
21336;BMP180;10826;52.536;13.432;2022-09-09T13:17:02;100608.00;;;28.70
21336;BMP180;10826;52.536;13.432;2022-09-09T13:19:35;100604.00;;;28.80
21336;BMP180;10826;52.536;13.432;2022-09-09T13:22:37;100608.00;;;29.00
21336;BMP180;10826;52.536;13.432;2022-09-09T13:27:41;100595.00;;;29.00
21336;BMP180;10826;52.536;13.432;2022-09-09T13:30:33;100581.00;;;29.20
21336;BMP180;10826;52.536;13.432;2022-09-09T13:36:09;100576.00;;;29.20
21336;BMP180;10826;52.536;13.432;2022-09-09T13:41:24;100573.00;;;29.20
21336;BMP180;10826;52.536;13.432;2022-09-09T13:43:52;100575.00;;;29.20
21336;BMP180;10826;52.536;13.432;2022-09-09T13:46:39;100588.00;;;29.40
21336;BMP180;10826;52.536;13.432;2022-09-09T13:51:45;100567.00;;;29.50
21336;BMP180;10826;52.536;13.432;2022-09-09T13:54:15;100575.00;;;29.50
21336;BMP180;10826;52.536;13.432;2022-09-09T13:56:43;100570.00;;;29.50
21336;BMP180;10826;52.536;13.432;2022-09-09T13:59:16;100582.00;;;29.60
21336;BMP180;10826;52.536;13.432;2022-09-09T14:01:44;100575.00;;;29.70
21336;BMP180;10826;52.536;13.432;2022-09-09T14:04:13;100578.00;;;29.70
21336;BMP180;10826;52.536;13.432;2022-09-09T14:06:40;100583.00;;;29.80
21336;BMP180;10826;52.536;13.432;2022-09-09T14:09:11;100578.00;;;29.90
21336;BMP180;10826;52.536;13.432;2022-09-09T14:11:38;100591.00;;;29.90
21336;BMP180;10826;52.536;13.432;2022-09-09T14:14:04;100566.00;;;29.90
21336;BMP180;10826;52.536;13.432;2022-09-09T14:16:32;100576.00;;;29.80
21336;BMP180;10826;52.536;13.432;2022-09-09T14:18:59;100571.00;;;29.70
21336;BMP180;10826;52.536;13.432;2022-09-09T14:21:27;100577.00;;;29.70
21336;BMP180;10826;52.536;13.432;2022-09-09T14:23:54;100595.00;;;29.60
21336;BMP180;10826;52.536;13.432;2022-09-09T14:26:25;100589.00;;;29.60
21336;BMP180;10826;52.536;13.432;2022-09-09T14:28:52;100515.00;;;29.60
21336;BMP180;10826;52.536;13.432;2022-09-09T14:31:18;100570.00;;;29.70
21336;BMP180;10826;52.536;13.432;2022-09-09T14:33:45;100586.00;;;29.70
21336;BMP180;10826;52.536;13.432;2022-09-09T14:36:11;100553.00;;;29.70
21336;BMP180;10826;52.536;13.432;2022-09-09T14:38:40;100586.00;;;29.70
21336;BMP180;10826;52.536;13.432;2022-09-09T14:41:10;100573.00;;;29.70
21336;BMP180;10826;52.536;13.432;2022-09-09T14:43:39;100558.00;;;29.70
21336;BMP180;10826;52.536;13.432;2022-09-09T14:46:12;100532.00;;;29.60
21336;BMP180;10826;52.536;13.432;2022-09-09T14:48:38;100587.00;;;29.50
21336;BMP180;10826;52.536;13.432;2022-09-09T14:51:21;100555.00;;;29.50
21336;BMP180;10826;52.536;13.432;2022-09-09T14:53:51;100599.00;;;29.50
21336;BMP180;10826;52.536;13.432;2022-09-09T14:56:27;100601.00;;;29.40
21336;BMP180;10826;52.536;13.432;2022-09-09T14:58:57;100553.00;;;29.30
21336;BMP180;10826;52.536;13.432;2022-09-09T15:01:24;100594.00;;;29.30
21336;BMP180;10826;52.536;13.432;2022-09-09T15:04:03;100590.00;;;29.30
21336;BMP180;10826;52.536;13.432;2022-09-09T15:06:33;100573.00;;;29.10
21336;BMP180;10826;52.536;13.432;2022-09-09T15:09:01;100587.00;;;29.00
21336;BMP180;10826;52.536;13.432;2022-09-09T15:11:31;100576.00;;;29.00
21336;BMP180;10826;52.536;13.432;2022-09-09T15:13:58;100589.00;;;28.80
21336;BMP180;10826;52.536;13.432;2022-09-09T15:16:28;100581.00;;;28.90
21336;BMP180;10826;52.536;13.432;2022-09-09T15:18:58;100564.00;;;28.90
21336;BMP180;10826;52.536;13.432;2022-09-09T15:21:33;100580.00;;;28.80
21336;BMP180;10826;52.536;13.432;2022-09-09T15:24:04;100573.00;;;28.90
21336;BMP180;10826;52.536;13.432;2022-09-09T15:26:31;100563.00;;;28.80
21336;BMP180;10826;52.536;13.432;2022-09-09T15:29:00;100542.00;;;29.00
21336;BMP180;10826;52.536;13.432;2022-09-09T15:31:31;100576.00;;;29.10
21336;BMP180;10826;52.536;13.432;2022-09-09T15:34:01;100580.00;;;29.20
21336;BMP180;10826;52.536;13.432;2022-09-09T15:39:03;100565.00;;;29.20
21336;BMP180;10826;52.536;13.432;2022-09-09T15:41:30;100566.00;;;29.20
21336;BMP180;10826;52.536;13.432;2022-09-09T15:43:58;100528.00;;;29.20
21336;BMP180;10826;52.536;13.432;2022-09-09T15:46:49;100557.00;;;29.20
21336;BMP180;10826;52.536;13.432;2022-09-09T15:49:22;100562.00;;;29.10
21336;BMP180;10826;52.536;13.432;2022-09-09T15:51:57;100545.00;;;29.00
21336;BMP180;10826;52.536;13.432;2022-09-09T15:54:25;100537.00;;;28.90
21336;BMP180;10826;52.536;13.432;2022-09-09T15:56:57;100510.00;;;28.80
21336;BMP180;10826;52.536;13.432;2022-09-09T15:59:27;100513.00;;;28.70
21336;BMP180;10826;52.536;13.432;2022-09-09T16:01:56;100548.00;;;28.60
21336;BMP180;10826;52.536;13.432;2022-09-09T16:04:24;100516.00;;;28.50
21336;BMP180;10826;52.536;13.432;2022-09-09T16:07:03;100555.00;;;28.40
21336;BMP180;10826;52.536;13.432;2022-09-09T16:09:32;100590.00;;;28.30